createdAt,value
2018-09-15T00:00:44.539Z,0
2018-09-15T00:01:54.394Z,0
2018-09-15T00:03:04.247Z,0
2018-09-15T00:04:14.095Z,0
2018-09-15T00:05:24.229Z,0
2018-09-15T00:06:34.374Z,0
2018-09-15T00:07:44.226Z,0
2018-09-15T00:08:54.078Z,0
2018-09-15T00:10:03.935Z,0
2018-09-15T00:11:13.250Z,0
2018-09-15T00:12:23.386Z,0
2018-09-15T00:13:33.517Z,0
2018-09-15T00:14:43.097Z,0
2018-09-15T00:15:52.683Z,0
2018-09-15T00:17:02.868Z,0
2018-09-15T00:18:12.725Z,0
2018-09-15T00:19:22.603Z,0
2018-09-15T00:20:32.743Z,0
2018-09-15T00:21:42.897Z,0
2018-09-15T00:22:53.160Z,0
2018-09-15T00:24:03.313Z,0
2018-09-15T00:25:13.178Z,0
2018-09-15T00:26:23.316Z,0
2018-09-15T00:27:33.445Z,0
2018-09-15T00:28:43.628Z,0
2018-09-15T00:29:53.761Z,0
2018-09-15T00:31:03.633Z,0
2018-09-15T00:32:13.490Z,0
2018-09-15T00:33:23.086Z,0
2018-09-15T00:34:33.270Z,0
2018-09-15T00:35:43.405Z,0
2018-09-15T00:36:52.989Z,0
2018-09-15T00:38:03.127Z,0
2018-09-15T00:39:13.258Z,0
2018-09-15T00:40:23.441Z,0
2018-09-15T00:41:33.568Z,0
2018-09-15T00:42:43.423Z,0
2018-09-15T00:43:53.552Z,0
2018-09-15T00:45:03.678Z,0
2018-09-15T00:46:13.581Z,0
2018-09-15T00:47:23.436Z,0
2018-09-15T00:48:33.297Z,0
2018-09-15T00:49:43.152Z,0
2018-09-15T00:50:53.274Z,0
2018-09-15T00:52:03.402Z,0
2018-09-15T00:53:13.252Z,0
2018-09-15T00:54:23.107Z,0
2018-09-15T00:55:33.239Z,0
2018-09-15T00:56:43.371Z,0
2018-09-15T00:57:53.598Z,0
2018-09-15T00:59:03.444Z,0
2018-09-15T01:00:13.026Z,0
2018-09-15T01:01:23.155Z,0
2018-09-15T01:02:33.005Z,0
2018-09-15T01:03:43.179Z,0
2018-09-15T01:04:53.298Z,0
2018-09-15T01:06:03.148Z,0
2018-09-15T01:07:13.283Z,0
2018-09-15T01:08:23.135Z,0
2018-09-15T01:09:32.722Z,0
2018-09-15T01:10:42.574Z,0
2018-09-15T01:11:52.428Z,0
2018-09-15T01:13:02.281Z,0
2018-09-15T01:14:12.674Z,0
2018-09-15T01:15:22.933Z,0
2018-09-15T01:16:32.788Z,0
2018-09-15T01:17:42.637Z,0
2018-09-15T01:18:52.757Z,0
2018-09-15T01:20:03.184Z,0
2018-09-15T01:21:13.393Z,0
2018-09-15T01:22:23.533Z,0
2018-09-15T01:23:32.833Z,0
2018-09-15T01:24:42.958Z,0
2018-09-15T01:25:53.134Z,0
2018-09-15T01:27:03.325Z,0
2018-09-15T01:28:13.178Z,0
2018-09-15T01:29:23.300Z,0
2018-09-15T01:30:33.431Z,0
2018-09-15T01:31:42.733Z,0
2018-09-15T01:32:52.872Z,0
2018-09-15T01:34:02.447Z,0
2018-09-15T01:35:12.306Z,0
2018-09-15T01:36:21.882Z,0
2018-09-15T01:37:32.008Z,0
2018-09-15T01:38:42.147Z,0
2018-09-15T01:39:51.731Z,0
2018-09-15T01:41:01.864Z,0
2018-09-15T01:42:11.736Z,0
2018-09-15T01:43:21.867Z,0
2018-09-15T01:44:32.042Z,0
2018-09-15T01:45:42.165Z,0
2018-09-15T01:46:52.292Z,0
2018-09-15T01:48:02.140Z,0
2018-09-15T01:49:11.992Z,0
2018-09-15T01:50:22.164Z,0
2018-09-15T01:51:32.011Z,0
2018-09-15T01:52:42.141Z,0
2018-09-15T01:53:51.990Z,0
2018-09-15T01:55:02.119Z,0
2018-09-15T01:56:11.747Z,0
2018-09-15T01:57:21.900Z,0
2018-09-15T01:58:31.759Z,0
2018-09-15T01:59:41.616Z,0
2018-09-15T02:00:51.758Z,0
2018-09-15T02:02:01.667Z,0
2018-09-15T02:03:11.289Z,0
2018-09-15T02:04:21.417Z,0
2018-09-15T02:05:31.542Z,0
2018-09-15T02:06:41.669Z,0
2018-09-15T02:07:51.247Z,0
2018-09-15T02:09:01.368Z,0
2018-09-15T02:10:11.218Z,0
2018-09-15T02:11:21.348Z,0
2018-09-15T02:12:31.479Z,0
2018-09-15T02:13:41.333Z,0
2018-09-15T02:14:50.637Z,0
2018-09-15T02:16:00.490Z,0
2018-09-15T02:17:10.338Z,0
2018-09-15T02:18:20.470Z,0
2018-09-15T02:19:30.757Z,0
2018-09-15T02:20:40.881Z,0
2018-09-15T02:21:51.011Z,0
2018-09-15T02:23:01.553Z,0
2018-09-15T02:24:11.464Z,0
2018-09-15T02:25:21.633Z,0
2018-09-15T02:26:31.483Z,0
2018-09-15T02:27:41.343Z,0
2018-09-15T02:28:51.262Z,0
2018-09-15T02:30:01.124Z,0
2018-09-15T02:31:10.981Z,0
2018-09-15T02:32:21.109Z,0
2018-09-15T02:33:30.962Z,0
2018-09-15T02:34:41.090Z,0
2018-09-15T02:35:51.219Z,0
2018-09-15T02:37:01.402Z,0
2018-09-15T02:38:11.259Z,0
2018-09-15T02:39:20.846Z,0
2018-09-15T02:40:30.980Z,0
2018-09-15T02:41:41.111Z,0
2018-09-15T02:42:51.290Z,0
2018-09-15T02:44:01.151Z,0
2018-09-15T02:45:11.282Z,0
2018-09-15T02:46:21.150Z,0
2018-09-15T02:47:31.284Z,0
2018-09-15T02:48:41.462Z,0
2018-09-15T02:49:51.589Z,0
2018-09-15T02:51:01.721Z,0
2018-09-15T02:52:11.579Z,0
2018-09-15T02:53:21.714Z,0
2018-09-15T02:54:31.329Z,0
2018-09-15T02:55:41.459Z,0
2018-09-15T02:56:51.326Z,0
2018-09-15T02:58:01.182Z,0
2018-09-15T02:59:11.306Z,0
2018-09-15T03:00:20.942Z,0
2018-09-15T03:01:30.524Z,0
2018-09-15T03:02:40.657Z,0
2018-09-15T03:03:50.792Z,0
2018-09-15T03:05:00.923Z,0
2018-09-15T03:06:10.782Z,0
2018-09-15T03:07:20.656Z,0
2018-09-15T03:08:30.507Z,0
2018-09-15T03:09:40.364Z,0
2018-09-15T03:10:50.621Z,0
2018-09-15T03:12:00.888Z,0
2018-09-15T03:13:10.736Z,0
2018-09-15T03:14:20.887Z,0
2018-09-15T03:15:30.742Z,0
2018-09-15T03:16:40.879Z,0
2018-09-15T03:17:50.791Z,0
2018-09-15T03:19:00.645Z,0
2018-09-15T03:20:10.776Z,0
2018-09-15T03:21:20.913Z,0
2018-09-15T03:22:30.501Z,0
2018-09-15T03:23:40.639Z,0
2018-09-15T03:24:50.215Z,0
2018-09-15T03:26:00.344Z,0
2018-09-15T03:27:10.468Z,0
2018-09-15T03:28:20.322Z,0
2018-09-15T03:29:30.249Z,0
2018-09-15T03:30:40.395Z,0
2018-09-15T03:31:49.971Z,0
2018-09-15T03:33:00.122Z,0
2018-09-15T03:34:10.246Z,0
2018-09-15T03:35:20.427Z,0
2018-09-15T03:36:30.561Z,0
2018-09-15T03:37:40.412Z,0
2018-09-15T03:38:50.260Z,0
2018-09-15T03:40:00.116Z,0
2018-09-15T03:41:10.245Z,0
2018-09-15T03:42:20.373Z,0
2018-09-15T03:43:30.506Z,0
2018-09-15T03:44:40.639Z,0
2018-09-15T03:45:50.490Z,0
2018-09-15T03:47:00.667Z,0
2018-09-15T03:48:10.798Z,0
2018-09-15T03:49:20.380Z,0
2018-09-15T03:50:30.230Z,0
2018-09-15T03:51:40.359Z,0
2018-09-15T03:52:50.487Z,0
2018-09-15T03:54:00.620Z,0
2018-09-15T03:55:10.750Z,0
2018-09-15T03:56:20.610Z,0
2018-09-15T03:57:30.736Z,0
2018-09-15T03:58:40.933Z,0
2018-09-15T03:59:51.177Z,0
2018-09-15T04:01:01.333Z,0
2018-09-15T04:02:10.956Z,0
2018-09-15T04:03:21.089Z,0
2018-09-15T04:04:31.278Z,0
2018-09-15T04:05:41.132Z,0
2018-09-15T04:06:51.278Z,0
2018-09-15T04:08:01.405Z,0
2018-09-15T04:09:11.258Z,0
2018-09-15T04:10:21.388Z,0
2018-09-15T04:11:31.522Z,0
2018-09-15T04:12:41.373Z,0
2018-09-15T04:13:51.497Z,0
2018-09-15T04:15:01.621Z,0
2018-09-15T04:16:11.250Z,0
2018-09-15T04:17:21.104Z,0
2018-09-15T04:18:30.682Z,0
2018-09-15T04:19:40.535Z,0
2018-09-15T04:20:49.848Z,0
2018-09-15T04:21:59.715Z,0
2018-09-15T04:23:09.853Z,0
2018-09-15T04:24:19.977Z,0
2018-09-15T04:25:30.138Z,0
2018-09-15T04:26:40.000Z,0
2018-09-15T04:27:49.684Z,0
2018-09-15T04:28:59.817Z,0
2018-09-15T04:30:09.399Z,0
2018-09-15T04:31:19.524Z,0
2018-09-15T04:32:29.649Z,0
2018-09-15T04:33:39.849Z,0
2018-09-15T04:34:49.981Z,5
2018-09-15T04:35:59.837Z,5
2018-09-15T04:37:09.962Z,5
2018-09-15T04:38:19.812Z,5
2018-09-15T04:39:30.013Z,5
2018-09-15T04:40:40.153Z,5
2018-09-15T04:41:50.814Z,5
2018-09-15T04:43:00.384Z,10
2018-09-15T04:44:10.506Z,10
2018-09-15T04:45:20.131Z,10
2018-09-15T04:46:29.989Z,10
2018-09-15T04:47:40.117Z,10
2018-09-15T04:48:49.980Z,15
2018-09-15T04:50:00.107Z,15
2018-09-15T04:51:10.016Z,15
2018-09-15T04:52:20.153Z,20
2018-09-15T04:53:30.279Z,20
2018-09-15T04:54:40.407Z,25
2018-09-15T04:55:49.991Z,25
2018-09-15T04:56:59.892Z,30
2018-09-15T04:58:09.465Z,30
2018-09-15T04:59:19.603Z,30
2018-09-15T05:00:29.731Z,25
2018-09-15T05:01:39.316Z,25
2018-09-15T05:02:49.490Z,30
2018-09-15T05:03:59.346Z,30
2018-09-15T05:05:09.478Z,35
2018-09-15T05:06:19.602Z,35
2018-09-15T05:07:29.733Z,40
2018-09-15T05:08:39.632Z,40
2018-09-15T05:09:49.489Z,45
2018-09-15T05:10:59.622Z,45
2018-09-15T05:12:09.747Z,45
2018-09-15T05:13:19.876Z,50
2018-09-15T05:14:29.783Z,50
2018-09-15T05:15:39.913Z,50
2018-09-15T05:16:49.844Z,55
2018-09-15T05:17:59.973Z,55
2018-09-15T05:19:08.999Z,55
2018-09-15T05:20:19.177Z,60
2018-09-15T05:21:28.753Z,60
2018-09-15T05:22:38.879Z,60
2018-09-15T05:23:49.012Z,65
2018-09-15T05:24:59.135Z,65
2018-09-15T05:26:09.031Z,70
2018-09-15T05:27:18.607Z,70
2018-09-15T05:28:28.454Z,70
2018-09-15T05:29:38.584Z,70
2018-09-15T05:30:48.433Z,70
2018-09-15T05:31:58.334Z,70
2018-09-15T05:33:08.466Z,75
2018-09-15T05:34:18.593Z,75
2018-09-15T05:35:28.449Z,75
2018-09-15T05:36:38.580Z,75
2018-09-15T05:37:48.483Z,80
2018-09-15T05:38:58.609Z,80
2018-09-15T05:40:08.631Z,80
2018-09-15T05:41:17.938Z,80
2018-09-15T05:42:28.065Z,85
2018-09-15T05:43:37.968Z,85
2018-09-15T05:44:48.092Z,85
2018-09-15T05:45:57.943Z,85
2018-09-15T05:47:07.798Z,90
2018-09-15T05:48:17.922Z,90
2018-09-15T05:49:27.843Z,90
2018-09-15T05:50:37.699Z,95
2018-09-15T05:51:47.824Z,95
2018-09-15T05:52:57.675Z,95
2018-09-15T05:54:07.802Z,95
2018-09-15T05:55:17.450Z,100
2018-09-15T05:56:27.304Z,100
2018-09-15T05:57:37.157Z,100
2018-09-15T05:58:47.280Z,100
2018-09-15T05:59:57.405Z,105
2018-09-15T06:01:07.407Z,105
2018-09-15T06:02:17.549Z,105
2018-09-15T06:03:27.672Z,105
2018-09-15T06:04:37.544Z,110
2018-09-15T06:05:47.687Z,115
2018-09-15T06:06:57.847Z,110
2018-09-15T06:08:07.421Z,110
2018-09-15T06:09:17.276Z,110
2018-09-15T06:10:27.123Z,120
2018-09-15T06:11:36.980Z,120
2018-09-15T06:12:47.211Z,115
2018-09-15T06:13:57.404Z,115
2018-09-15T06:15:07.259Z,125
2018-09-15T06:16:17.109Z,125
2018-09-15T06:17:26.966Z,120
2018-09-15T06:18:36.594Z,120
2018-09-15T06:19:46.463Z,120
2018-09-15T06:20:56.589Z,120
2018-09-15T06:22:06.448Z,120
2018-09-15T06:23:15.760Z,125
2018-09-15T06:24:25.940Z,125
2018-09-15T06:25:35.791Z,125
2018-09-15T06:26:45.643Z,125
2018-09-15T06:27:55.767Z,125
2018-09-15T06:29:05.636Z,125
2018-09-15T06:30:15.812Z,130
2018-09-15T06:31:25.661Z,130
2018-09-15T06:32:35.524Z,130
2018-09-15T06:33:45.652Z,130
2018-09-15T06:34:55.782Z,130
2018-09-15T06:36:05.693Z,140
2018-09-15T06:37:15.819Z,140
2018-09-15T06:38:25.667Z,135
2018-09-15T06:39:35.967Z,135
2018-09-15T06:40:46.094Z,140
2018-09-15T06:41:55.947Z,140
2018-09-15T06:43:06.072Z,140
2018-09-15T06:44:15.924Z,140
2018-09-15T06:45:26.319Z,140
2018-09-15T06:46:36.469Z,145
2018-09-15T06:47:46.644Z,145
2018-09-15T06:48:56.492Z,145
2018-09-15T06:50:06.626Z,145
2018-09-15T06:51:16.543Z,150
2018-09-15T06:52:26.401Z,150
2018-09-15T06:53:36.599Z,150
2018-09-15T06:54:46.730Z,150
2018-09-15T06:55:56.894Z,155
2018-09-15T06:57:06.219Z,155
2018-09-15T06:58:16.385Z,155
2018-09-15T06:59:27.921Z,155
2018-09-15T07:00:38.050Z,160
2018-09-15T07:01:48.185Z,165
2018-09-15T07:02:58.311Z,170
2018-09-15T07:04:08.433Z,175
2018-09-15T07:05:18.564Z,185
2018-09-15T07:06:27.862Z,190
2018-09-15T07:07:37.728Z,195
2018-09-15T07:08:47.306Z,200
2018-09-15T07:09:57.444Z,200
2018-09-15T07:11:07.621Z,200
2018-09-15T07:12:17.755Z,195
2018-09-15T07:13:27.334Z,195
2018-09-15T07:14:37.192Z,195
2018-09-15T07:15:47.323Z,190
2018-09-15T07:16:57.444Z,190
2018-09-15T07:18:07.574Z,190
2018-09-15T07:19:17.705Z,190
2018-09-15T07:20:27.283Z,195
2018-09-15T07:21:36.865Z,195
2018-09-15T07:22:46.767Z,200
2018-09-15T07:23:56.896Z,205
2018-09-15T07:25:06.473Z,210
2018-09-15T07:26:16.329Z,215
2018-09-15T07:27:26.462Z,220
2018-09-15T07:28:36.374Z,225
2018-09-15T07:29:46.234Z,225
2018-09-15T07:30:56.083Z,230
2018-09-15T07:32:06.172Z,230
2018-09-15T07:33:16.024Z,235
2018-09-15T07:34:25.650Z,240
2018-09-15T07:35:35.520Z,245
2018-09-15T07:36:45.648Z,245
2018-09-15T07:37:56.142Z,250
2018-09-15T07:39:05.447Z,255
2018-09-15T07:40:15.632Z,255
2018-09-15T07:41:25.494Z,260
2018-09-15T07:42:35.352Z,260
2018-09-15T07:43:44.939Z,260
2018-09-15T07:44:54.891Z,255
2018-09-15T07:46:04.535Z,255
2018-09-15T07:47:14.664Z,255
2018-09-15T07:48:24.794Z,255
2018-09-15T07:49:34.646Z,260
2018-09-15T07:50:44.773Z,250
2018-09-15T07:51:54.953Z,250
2018-09-15T07:53:05.246Z,260
2018-09-15T07:54:15.408Z,265
2018-09-15T07:55:24.745Z,270
2018-09-15T07:56:34.603Z,265
2018-09-15T07:57:45.621Z,280
2018-09-15T07:58:55.282Z,280
2018-09-15T08:00:05.195Z,285
2018-09-15T08:01:14.775Z,305
2018-09-15T08:02:24.908Z,300
2018-09-15T08:03:34.822Z,315
2018-09-15T08:04:44.962Z,320
2018-09-15T08:05:55.087Z,325
2018-09-15T08:07:04.668Z,325
2018-09-15T08:08:14.520Z,330
2018-09-15T08:09:24.649Z,330
2018-09-15T08:10:34.228Z,330
2018-09-15T08:11:44.369Z,335
2018-09-15T08:12:54.223Z,335
2018-09-15T08:14:03.813Z,340
2018-09-15T08:15:13.670Z,345
2018-09-15T08:16:23.526Z,350
2018-09-15T08:17:33.659Z,355
2018-09-15T08:18:43.799Z,355
2018-09-15T08:19:53.928Z,365
2018-09-15T08:21:03.911Z,370
2018-09-15T08:22:13.215Z,370
2018-09-15T08:23:23.078Z,370
2018-09-15T08:24:32.667Z,370
2018-09-15T08:25:42.525Z,375
2018-09-15T08:26:52.658Z,385
2018-09-15T08:28:02.798Z,385
2018-09-15T08:29:12.930Z,385
2018-09-15T08:30:22.787Z,385
2018-09-15T08:31:32.910Z,385
2018-09-15T08:32:43.040Z,390
2018-09-15T08:33:52.904Z,395
2018-09-15T08:35:02.759Z,400
2018-09-15T08:36:12.341Z,405
2018-09-15T08:37:22.525Z,405
2018-09-15T08:38:32.401Z,405
2018-09-15T08:39:42.259Z,405
2018-09-15T08:40:51.564Z,410
2018-09-15T08:42:01.424Z,405
2018-09-15T08:43:10.732Z,410
2018-09-15T08:44:20.883Z,415
2018-09-15T08:45:31.017Z,410
2018-09-15T08:46:41.152Z,395
2018-09-15T08:47:51.010Z,395
2018-09-15T08:49:01.142Z,405
2018-09-15T08:50:11.281Z,400
2018-09-15T08:51:21.158Z,400
2018-09-15T08:52:31.288Z,410
2018-09-15T08:53:40.868Z,415
2018-09-15T08:54:50.735Z,415
2018-09-15T08:56:00.658Z,420
2018-09-15T08:57:10.526Z,420
2018-09-15T08:58:20.385Z,425
2018-09-15T08:59:30.524Z,425
2018-09-15T09:00:40.391Z,435
2018-09-15T09:01:50.534Z,440
2018-09-15T09:03:00.665Z,440
2018-09-15T09:04:10.803Z,445
2018-09-15T09:05:20.942Z,440
2018-09-15T09:06:31.069Z,435
2018-09-15T09:07:41.017Z,430
2018-09-15T09:08:51.149Z,420
2018-09-15T09:10:01.024Z,425
2018-09-15T09:11:10.879Z,415
2018-09-15T09:12:20.188Z,410
2018-09-15T09:13:30.323Z,405
2018-09-15T09:14:40.464Z,400
2018-09-15T09:15:50.593Z,400
2018-09-15T09:17:00.177Z,410
2018-09-15T09:18:10.030Z,410
2018-09-15T09:19:19.614Z,410
2018-09-15T09:20:28.923Z,420
2018-09-15T09:21:38.785Z,420
2018-09-15T09:22:48.914Z,430
2018-09-15T09:23:58.223Z,445
2018-09-15T09:25:08.421Z,450
2018-09-15T09:26:18.685Z,455
2018-09-15T09:27:28.563Z,465
2018-09-15T09:28:38.423Z,475
2018-09-15T09:29:48.565Z,485
2018-09-15T09:30:58.742Z,485
2018-09-15T09:32:08.603Z,495
2018-09-15T09:33:18.773Z,500
2018-09-15T09:34:28.970Z,490
2018-09-15T09:35:38.826Z,495
2018-09-15T09:36:48.691Z,495
2018-09-15T09:37:58.545Z,495
2018-09-15T09:39:08.679Z,495
2018-09-15T09:40:18.810Z,500
2018-09-15T09:41:29.106Z,500
2018-09-15T09:42:39.049Z,500
2018-09-15T09:43:48.907Z,510
2018-09-15T09:44:59.038Z,495
2018-09-15T09:46:09.171Z,495
2018-09-15T09:47:19.299Z,495
2018-09-15T09:48:29.815Z,490
2018-09-15T09:49:39.943Z,490
2018-09-15T09:50:49.798Z,490
2018-09-15T09:51:59.928Z,490
2018-09-15T09:53:10.066Z,485
2018-09-15T09:54:20.198Z,490
2018-09-15T09:55:30.062Z,490
2018-09-15T09:56:40.197Z,495
2018-09-15T09:57:50.332Z,500
2018-09-15T09:59:00.468Z,510
2018-09-15T10:00:10.336Z,510
2018-09-15T10:01:20.942Z,520
2018-09-15T10:02:31.171Z,515
2018-09-15T10:03:41.031Z,510
2018-09-15T10:04:51.162Z,505
2018-09-15T10:06:01.022Z,505
2018-09-15T10:07:11.619Z,495
2018-09-15T10:08:21.817Z,490
2018-09-15T10:09:31.432Z,490
2018-09-15T10:10:41.288Z,485
2018-09-15T10:11:51.433Z,485
2018-09-15T10:13:01.020Z,485
2018-09-15T10:14:10.608Z,485
2018-09-15T10:15:20.740Z,480
2018-09-15T10:16:31.261Z,480
2018-09-15T10:17:40.850Z,480
2018-09-15T10:18:50.981Z,480
2018-09-15T10:20:00.836Z,475
2018-09-15T10:21:10.699Z,470
2018-09-15T10:22:20.834Z,470
2018-09-15T10:23:30.692Z,465
2018-09-15T10:24:40.821Z,465
2018-09-15T10:25:50.965Z,470
2018-09-15T10:27:01.100Z,460
2018-09-15T10:28:10.683Z,460
2018-09-15T10:29:20.539Z,455
2018-09-15T10:30:30.669Z,455
2018-09-15T10:31:40.798Z,450
2018-09-15T10:32:50.667Z,445
2018-09-15T10:34:00.535Z,440
2018-09-15T10:35:10.666Z,435
2018-09-15T10:36:20.249Z,425
2018-09-15T10:37:30.383Z,415
2018-09-15T10:38:40.930Z,410
2018-09-15T10:39:50.790Z,405
2018-09-15T10:41:00.929Z,405
2018-09-15T10:42:10.515Z,400
2018-09-15T10:43:20.649Z,405
2018-09-15T10:44:30.786Z,405
2018-09-15T10:45:40.641Z,405
2018-09-15T10:46:50.850Z,410
2018-09-15T10:48:00.707Z,410
2018-09-15T10:49:10.294Z,415
2018-09-15T10:50:20.150Z,415
2018-09-15T10:51:29.736Z,415
2018-09-15T10:52:40.027Z,415
2018-09-15T10:53:50.164Z,410
2018-09-15T10:55:00.296Z,410
2018-09-15T10:56:09.882Z,410
2018-09-15T10:57:19.737Z,410
2018-09-15T10:58:29.644Z,410
2018-09-15T10:59:39.780Z,415
2018-09-15T11:00:50.360Z,415
2018-09-15T11:02:00.237Z,415
2018-09-15T11:03:09.818Z,415
2018-09-15T11:04:19.682Z,415
2018-09-15T11:05:29.257Z,420
2018-09-15T11:06:39.402Z,415
2018-09-15T11:07:49.538Z,420
2018-09-15T11:08:59.667Z,415
2018-09-15T11:10:09.798Z,415
2018-09-15T11:11:19.652Z,410
2018-09-15T11:12:29.510Z,405
2018-09-15T11:13:39.396Z,400
2018-09-15T11:14:48.941Z,385
2018-09-15T11:15:58.798Z,375
2018-09-15T11:17:08.655Z,370
2018-09-15T11:18:18.244Z,360
2018-09-15T11:19:27.827Z,350
2018-09-15T11:20:37.413Z,350
2018-09-15T11:21:47.266Z,345
2018-09-15T11:22:58.052Z,340
2018-09-15T11:24:08.185Z,335
2018-09-15T11:25:18.315Z,330
2018-09-15T11:26:28.449Z,325
2018-09-15T11:27:38.629Z,320
2018-09-15T11:28:48.906Z,325
2018-09-15T11:29:59.050Z,325
2018-09-15T11:31:08.903Z,330
2018-09-15T11:32:18.758Z,330
2018-09-15T11:33:28.935Z,335
2018-09-15T11:34:38.788Z,335
2018-09-15T11:35:48.648Z,335
2018-09-15T11:36:58.509Z,335
2018-09-15T11:38:08.636Z,335
2018-09-15T11:39:18.493Z,335
2018-09-15T11:40:28.620Z,335
2018-09-15T11:41:38.801Z,330
2018-09-15T11:42:48.382Z,330
2018-09-15T11:43:58.518Z,330
2018-09-15T11:45:08.104Z,330
2018-09-15T11:46:18.233Z,335
2018-09-15T11:47:27.547Z,345
2018-09-15T11:48:37.684Z,350
2018-09-15T11:49:47.545Z,355
2018-09-15T11:50:57.405Z,355
2018-09-15T11:52:07.261Z,360
2018-09-15T11:53:17.116Z,360
2018-09-15T11:54:26.708Z,360
2018-09-15T11:55:36.563Z,360
2018-09-15T11:56:46.692Z,360
2018-09-15T11:57:56.275Z,355
2018-09-15T11:59:05.859Z,355
2018-09-15T12:00:15.948Z,355
2018-09-15T12:01:25.801Z,355
2018-09-15T12:02:35.929Z,360
2018-09-15T12:03:46.112Z,365
2018-09-15T12:04:56.259Z,365
2018-09-15T12:06:06.410Z,365
2018-09-15T12:07:16.542Z,365
2018-09-15T12:08:26.450Z,370
2018-09-15T12:09:36.588Z,365
2018-09-15T12:10:46.449Z,360
2018-09-15T12:11:56.309Z,360
2018-09-15T12:13:06.167Z,360
2018-09-15T12:14:15.639Z,360
2018-09-15T12:15:25.852Z,365
2018-09-15T12:16:35.723Z,375
2018-09-15T12:17:45.867Z,380
2018-09-15T12:18:55.730Z,390
2018-09-15T12:20:05.585Z,395
2018-09-15T12:21:15.516Z,410
2018-09-15T12:22:25.663Z,415
2018-09-15T12:23:35.251Z,420
2018-09-15T12:24:45.102Z,420
2018-09-15T12:25:54.497Z,405
2018-09-15T12:27:04.634Z,405
2018-09-15T12:28:14.491Z,395
2018-09-15T12:29:24.343Z,400
2018-09-15T12:30:33.932Z,390
2018-09-15T12:31:44.072Z,385
2018-09-15T12:32:53.650Z,385
2018-09-15T12:34:03.777Z,385
2018-09-15T12:35:13.637Z,380
2018-09-15T12:36:23.775Z,375
2018-09-15T12:37:33.684Z,370
2018-09-15T12:38:43.817Z,365
2018-09-15T12:39:53.951Z,360
2018-09-15T12:41:03.305Z,360
2018-09-15T12:42:13.174Z,350
2018-09-15T12:43:22.270Z,345
2018-09-15T12:44:32.143Z,335
2018-09-15T12:45:42.276Z,330
2018-09-15T12:46:51.858Z,330
2018-09-15T12:48:01.164Z,320
2018-09-15T12:49:11.021Z,315
2018-09-15T12:50:20.327Z,310
2018-09-15T12:51:30.471Z,305
2018-09-15T12:52:40.602Z,300
2018-09-15T12:53:50.463Z,285
2018-09-15T12:55:00.417Z,280
2018-09-15T12:56:09.727Z,270
2018-09-15T12:57:19.861Z,265
2018-09-15T12:58:29.444Z,255
2018-09-15T12:59:39.302Z,250
2018-09-15T13:00:48.890Z,240
2018-09-15T13:01:59.031Z,235
2018-09-15T13:03:09.160Z,230
2018-09-15T13:04:19.023Z,225
2018-09-15T13:05:29.160Z,220
2018-09-15T13:06:39.642Z,220
2018-09-15T13:07:49.219Z,220
2018-09-15T13:08:59.351Z,225
2018-09-15T13:10:09.208Z,230
2018-09-15T13:11:19.068Z,230
2018-09-15T13:12:28.648Z,235
2018-09-15T13:13:38.232Z,240
2018-09-15T13:14:48.109Z,245
2018-09-15T13:15:57.952Z,250
2018-09-15T13:17:08.089Z,250
2018-09-15T13:18:17.951Z,255
2018-09-15T13:19:27.809Z,255
2018-09-15T13:20:37.948Z,255
2018-09-15T13:21:47.537Z,255
2018-09-15T13:22:57.389Z,255
2018-09-15T13:24:07.241Z,255
2018-09-15T13:25:17.098Z,255
2018-09-15T13:26:26.680Z,255
2018-09-15T13:27:36.294Z,260
2018-09-15T13:28:45.874Z,255
2018-09-15T13:29:57.337Z,255
2018-09-15T13:31:06.870Z,255
2018-09-15T13:32:17.004Z,255
2018-09-15T13:33:27.137Z,255
2018-09-15T13:34:37.275Z,255
2018-09-15T13:35:47.409Z,255
2018-09-15T13:36:57.546Z,255
2018-09-15T13:38:07.699Z,255
2018-09-15T13:39:17.557Z,245
2018-09-15T13:40:27.696Z,245
2018-09-15T13:41:37.837Z,245
2018-09-15T13:42:47.695Z,245
2018-09-15T13:43:57.834Z,245
2018-09-15T13:45:07.695Z,245
2018-09-15T13:46:17.835Z,245
2018-09-15T13:47:27.967Z,240
2018-09-15T13:48:38.103Z,240
2018-09-15T13:49:47.964Z,240
2018-09-15T13:50:58.093Z,245
2018-09-15T13:52:08.222Z,250
2018-09-15T13:53:18.261Z,255
2018-09-15T13:54:27.540Z,265
2018-09-15T13:55:37.395Z,270
2018-09-15T13:56:46.719Z,280
2018-09-15T13:57:56.304Z,280
2018-09-15T13:59:06.491Z,280
2018-09-15T14:00:16.622Z,275
2018-09-15T14:01:26.750Z,270
2018-09-15T14:02:36.879Z,260
2018-09-15T14:03:46.185Z,255
2018-09-15T14:04:56.585Z,250
2018-09-15T14:06:06.208Z,240
2018-09-15T14:07:16.351Z,230
2018-09-15T14:08:25.931Z,220
2018-09-15T14:09:46.331Z,205
2018-09-15T14:10:56.971Z,200
2018-09-15T14:12:06.524Z,200
2018-09-15T14:13:16.656Z,200
2018-09-15T14:14:26.784Z,200
2018-09-15T14:15:36.645Z,205
2018-09-15T14:16:46.958Z,220
2018-09-15T14:17:57.112Z,220
2018-09-15T14:19:06.697Z,225
2018-09-15T14:20:16.827Z,225
2018-09-15T14:21:26.958Z,225
2018-09-15T14:22:37.098Z,220
2018-09-15T14:23:46.962Z,210
2018-09-15T14:24:57.096Z,205
2018-09-15T14:26:06.686Z,200
2018-09-15T14:27:16.826Z,195
2018-09-15T14:28:27.182Z,195
2018-09-15T14:29:37.371Z,195
2018-09-15T14:30:47.227Z,205
2018-09-15T14:31:57.356Z,200
2018-09-15T14:33:07.489Z,195
2018-09-15T14:34:17.348Z,195
2018-09-15T14:35:26.932Z,190
2018-09-15T14:36:37.060Z,190
2018-09-15T14:37:46.916Z,190
2018-09-15T14:38:57.400Z,200
2018-09-15T14:40:06.977Z,210
2018-09-15T14:41:16.877Z,205
2018-09-15T14:42:27.028Z,215
2018-09-15T14:43:36.884Z,220
2018-09-15T14:44:47.039Z,230
2018-09-15T14:45:57.172Z,240
2018-09-15T14:47:06.757Z,260
2018-09-15T14:48:17.278Z,250
2018-09-15T14:49:27.140Z,235
2018-09-15T14:50:37.005Z,250
2018-09-15T14:51:46.921Z,270
2018-09-15T14:52:57.045Z,255
2018-09-15T14:54:06.644Z,255
2018-09-15T14:55:16.822Z,270
2018-09-15T14:56:26.996Z,285
2018-09-15T14:57:36.849Z,325
2018-09-15T14:58:46.159Z,380
2018-09-15T14:59:56.021Z,355
2018-09-15T15:01:05.601Z,350
2018-09-15T15:02:15.453Z,355
2018-09-15T15:03:25.032Z,360
2018-09-15T15:04:34.891Z,365
2018-09-15T15:05:45.023Z,325
2018-09-15T15:06:55.165Z,305
2018-09-15T15:08:05.225Z,295
2018-09-15T15:09:15.355Z,300
2018-09-15T15:10:24.940Z,300
2018-09-15T15:11:34.798Z,300
2018-09-15T15:12:44.925Z,290
2018-09-15T15:13:55.356Z,270
2018-09-15T15:15:05.489Z,255
2018-09-15T15:16:15.358Z,235
2018-09-15T15:17:25.488Z,220
2018-09-15T15:18:35.618Z,210
2018-09-15T15:19:45.389Z,200
2018-09-15T15:20:55.597Z,195
2018-09-15T15:22:05.725Z,195
2018-09-15T15:23:15.865Z,190
2018-09-15T15:24:25.723Z,185
2018-09-15T15:25:36.035Z,175
2018-09-15T15:26:46.497Z,170
2018-09-15T15:27:55.807Z,170
2018-09-15T15:29:05.932Z,170
2018-09-15T15:30:16.063Z,175
2018-09-15T15:31:26.207Z,180
2018-09-15T15:32:36.542Z,180
2018-09-15T15:33:46.399Z,190
2018-09-15T15:34:56.275Z,200
2018-09-15T15:36:06.410Z,220
2018-09-15T15:37:15.993Z,245
2018-09-15T15:38:26.126Z,245
2018-09-15T15:39:35.988Z,255
2018-09-15T15:40:45.612Z,260
2018-09-15T15:41:56.014Z,265
2018-09-15T15:43:05.938Z,265
2018-09-15T15:44:16.087Z,260
2018-09-15T15:45:26.270Z,250
2018-09-15T15:46:36.134Z,250
2018-09-15T15:47:46.302Z,255
2018-09-15T15:48:56.162Z,260
2018-09-15T15:50:06.063Z,265
2018-09-15T15:51:15.942Z,270
2018-09-15T15:52:26.079Z,280
2018-09-15T15:53:36.210Z,295
2018-09-15T15:54:46.066Z,280
2018-09-15T15:55:56.402Z,280
2018-09-15T15:57:06.674Z,270
2018-09-15T15:58:16.946Z,275
2018-09-15T15:59:27.441Z,280
2018-09-15T16:00:37.572Z,290
2018-09-15T16:01:48.133Z,295
2018-09-15T16:02:58.333Z,265
2018-09-15T16:04:07.921Z,260
2018-09-15T16:05:18.052Z,255
2018-09-15T16:06:27.905Z,245
2018-09-15T16:07:37.047Z,235
2018-09-15T16:08:46.590Z,235
2018-09-15T16:09:56.716Z,245
2018-09-15T16:11:06.772Z,240
2018-09-15T16:12:16.414Z,225
2018-09-15T16:13:26.272Z,225
2018-09-15T16:14:36.126Z,220
2018-09-15T16:15:45.986Z,225
2018-09-15T16:16:55.836Z,220
2018-09-15T16:18:05.688Z,215
2018-09-15T16:19:15.539Z,220
2018-09-15T16:20:24.850Z,210
2018-09-15T16:21:34.428Z,215
2018-09-15T16:22:44.284Z,215
2018-09-15T16:23:54.137Z,210
2018-09-15T16:25:03.818Z,205